Airfield :
LOGIN :

Register | Disclaimer

   EN    FR    IT 

 










Legend :    VFR   Marginal VFR   IFR   Intensive IFR   Very Intensive IFR
Visi :
Ceiling :
>= 8 km
>= 3000ft
5 to 8 km
1000 to 3000 ft
1500m to 5 km
500 to 1000 ft
800 to 1500m
200 to 500 ft
< 800m
< 200 ft
Symbols :   Thunderstorms  Fog  Heavy snow  Heavy precipitations  Wind > 20 kt
SIGMETs :     Misc.  Thunderstorms  Icing  Turbulence  Mountain Waves  Volcanic Ashes







- Airport Elevation : 776 ft
- IATA code : RMS


ETAR - Ramstein Air Base

CURRENT METAR :
  • 160656Z 23007KT 9999 OVC022 04/04 A2998 RMK AO2A SLPNO T00390038 $

EXPIRED METARs :
  • 160556Z 22005KT 9999 OVC023 04/04 A2999 RMK AO2A SLPNO T00400039 10050 20040 57019 $
  • 160456Z 21008KT 9999 OVC024 04/04 A3000 RMK AO2A SLP170 T00420041 $

TAF TAF ETAR
Valid from the 16 at 02:00 until the 17 at 08:00 UTC


160202Z 1602/1708 22009KT 9999 OVC030 QNH2994INS
BECMG 1610/1611 22009KT 9999 SCT030 QNH2976INS
BECMG 1623/1624 23012G20KT 9999 BKN040 620304 QNH2965INS
BECMG 1705/1706 25012G20KT 8000 -SHRA BKN020 620203 QNH2965INS TX05/1615Z TN01/1606Z
No reported NOTAMs for that airfield.



MET'MAP, your aeronautical weather chart ! - Copyright ORBIFLY December 2007 - Disclaimer

ORBIFLY MET'MAP TEAM :

Programming & Development : Alexandra Zaïnal
Concept & Development : Baudouin d'Aumeries
Co-Development & Prog : Marc-Olivier Méhu
Technical & hardware support : Manuel Goepfert

Contact : metmap@orbifly.com




SOURCES & CREDITS :

   NOAA